Monday, November 24, 2014, 7:01 AM EST

KDOV, Dover Air Force Base

Location: Dover, DE, United States Lat: 39.133
Local Time: 7:01 AM EST (12:01 GMT) Lon: -75.467
Time Zone: US/Eastern Elev: 29 ft

Show me the last for .
Show Decoded

2014-11-24 06:01 METAR KDOV 241101Z AUTO 18017G23KT 10SM FEW008 OVC013 19/19 A2969 RMK AO2
                 DZE1101 =
2014-11-24 05:58 METAR KDOV 241058Z AUTO 18019G23KT 10SM -DZ FEW008 OVC013 19/19 A2970 =
2014-11-24 05:57 METAR KDOV 241057Z AUTO 18019G23KT 10SM -DZ FEW008 OVC013 19/19 A2970 RMK AO2 =
2014-11-24 05:47 METAR KDOV 241047Z AUTO 19017G27KT 9SM R19/5500FT -RA FEW008 OVC013 19/19 A2969
                 RMK AO2 RAB1045DZB1042E1045 =
2014-11-24 05:42 METAR KDOV 241042Z AUTO 18022G27KT 10SM -DZ OVC013 19/19 A2969 RMK AO2 DZB1042 =
2014-11-24 04:58 METAR KDOV 240958Z AUTO 17021G29KT 10SM OVC012 18/18 A2969 =
2014-11-24 03:58 METAR KDOV 240858Z AUTO 16023G31KT 10SM OVC012 18/18 A2969 =
2014-11-24 03:19 METAR KDOV 240819Z AUTO 16025G33KT 10SM OVC011 17/17 A2970 RMK AO2 RAE0819 =
2014-11-24 03:13 METAR KDOV 240813Z AUTO 15023G33KT 10SM -RA OVC011 17/17 A2969 RMK AO2 =
2014-11-24 03:03 METAR KDOV 240803Z AUTO 14020G33KT 10SM -RA OVC010 17/17 A2969 RMK AO2 OVC V BKN
                 PRESFR =
2014-11-24 02:58 METAR KDOV 240758Z AUTO 14021G33KT 10SM -RA OVC009 17/17 A2971 =
2014-11-24 02:41 METAR KDOV 240741Z AUTO 15019G23KT 10SM -RA OVC008 17/17 A2972 RMK AO2 =
2014-11-24 02:38 METAR KDOV 240738Z AUTO 14016G21KT 10SM OVC008 17/17 A2971 =
2014-11-24 02:33 METAR KDOV 240733Z AUTO 13011KT 10SM -RA OVC008 16/16 A2972 RMK AO2 =
2014-11-24 02:23 METAR KDOV 240723Z AUTO 12011KT 8SM R19/5500FT -RA OVC007 14/14 A2973 RMK AO2
                 OVC V BKN =
2014-11-24 02:13 METAR KDOV 240713Z AUTO 12010KT 8SM R19/5500FT -RA BKN006 OVC012 14/14 A2974 RMK
                 AO2 CIG 003V010 =
2014-11-24 01:58 METAR KDOV 240658Z AUTO 12011KT 8SM R19/5500FT -RA BKN003 OVC010 13/13 A2975 =
2014-11-24 01:49 METAR KDOV 240649Z AUTO 12012KT 6SM R19/5000FT -RA BR BKN003 OVC013 13/13 A2976
                 RMK AO2 BKN V OVC =
2014-11-24 01:34 METAR KDOV 240634Z AUTO 12011KT 5SM R19/4500FT RA BR OVC002 13/13 A2977 RMK AO2
                 =
2014-11-24 01:14 METAR KDOV 240614Z AUTO 11012G17KT 5SM R19/5000FT -RA BR OVC003 12/12 A2979 RMK
                 AO2 RAB0604 =
2014-11-24 01:04 METAR KDOV 240604Z AUTO 12012G19KT 4SM R19/4500FT -RA BR OVC003 12/12 A2980 RMK
                 AO2 RAB0604 =
2014-11-24 00:58 METAR KDOV 240558Z AUTO 12012G19KT 5SM R19/4500FT BR OVC003 12/12 A2981 =
2014-11-24 00:51 METAR KDOV 240551Z AUTO 12012G18KT 6SM R19/5000FT BR OVC003 12/12 A2982 RMK AO2
                 RAB0521E0551 =
2014-11-24 00:46 METAR KDOV 240546Z AUTO 12012G19KT 8SM R19/5500FT -RA OVC004 12/12 A2983 RMK AO2
                 RAB0521 OVC V BKN =
2014-11-24 00:41 METAR KDOV 240541Z AUTO 12011G19KT 10SM -RA BKN004 OVC014 12/12 A2983 =
2014-11-24 00:35 METAR KDOV 240535Z AUTO 12011G18KT 10SM BKN004 BKN014 OVC024 12/12 A2983 RMK AO2
                 RAB0521E0530 CIG 004V023 BKN004 V SCT =
2014-11-24 00:30 METAR KDOV 240530Z AUTO 12011G16KT 6SM R19/5500FT BR BKN004 BKN014 BKN021 OVC026
                 12/12 A2984 =
2014-11-24 00:21 METAR KDOV 240521Z AUTO 12010KT 4SM R19/4500FT -RA BR SCT004 SCT014 SCT020
                 BKN026 OVC035 12/12 A2985 RMK AO2 RAB0521 CIG 022V036 =
2014-11-24 00:18 METAR KDOV 240518Z AUTO 12011G20KT 6SM R19/5500FT BR FEW005 SCT014 SCT022 BKN028
                 OVC035 12/12 A2985 RMK AO2 CIG 026V037 BKN V SCT =
2014-11-24 00:13 METAR KDOV 240513Z AUTO 11012G20KT 10SM FEW022 SCT028 BKN036 OVC045 12/12 A2985
                 RMK AO2 PRESFR =
2014-11-23 23:58 METAR KDOV 240458Z AUTO 12010G18KT 10SM SCT034 BKN043 OVC050 13/13 A2987 =
2014-11-23 22:58 METAR KDOV 240358Z AUTO 12008KT 10SM FEW029 SCT044 OVC055 12/12 A2993 =
2014-11-23 22:22 METAR KDOV 240322Z AUTO 12008KT 080V140 10SM SCT029 BKN044 OVC050 12/12 A2995
                 RMK AO2 RAE0322 =
2014-11-23 21:58 METAR KDOV 240258Z AUTO 12008KT 10SM -RA SCT055 OVC070 12/12 A2997 =
2014-11-23 20:58 METAR KDOV 240158Z AUTO 13007KT 10SM FEW029 SCT039 OVC047 11/11 A3002 =
2014-11-23 20:24 METAR KDOV 240124Z AUTO 12006KT 10SM FEW043 OVC055 10/10 A3003 RMK AO2
                 RAB0112E0124 =
2014-11-23 20:12 METAR KDOV 240112Z AUTO 11006KT 10SM -RA OVC055 10/10 A3003 RMK AO2 RAB0112
                 PRESFR =
2014-11-23 19:58 METAR KDOV 240058Z AUTO 13007KT 10SM BKN060 OVC075 10/10 A3005 =
2014-11-23 18:58 METAR KDOV 232358Z AUTO 10006KT 10SM FEW055 OVC085 09/09 A3007 RMK AO2 SLP186
                 T00940091 10148 20069 58014 =
2014-11-23 17:58 METAR KDOV 232258Z AUTO 10005KT 10SM SCT210 08/08 A3010 =
2014-11-23 16:58 METAR KDOV 232158Z AUTO 09005KT 10SM SCT220 08/08 A3011 RMK AO2 SLP200 T00770075
                 =
2014-11-23 15:58 METAR KDOV 232058Z AUTO 09005KT 10SM CLR 09/07 A3011 RMK AO2 SLP200 T00900068
                 56015 =
2014-11-23 14:58 METAR KDOV 231958Z AUTO 05006KT 10SM CLR 15/10 A3012 =
2014-11-23 13:58 METAR KDOV 231858Z AUTO 17004KT 10SM FEW190 14/06 A3013 RMK AO2 SLP206 T01350058
                 =
2014-11-23 12:58 METAR KDOV 231758Z AUTO 19006KT 10SM CLR 12/02 A3016 =
2014-11-23 11:58 METAR KDOV 231658Z AUTO 19007KT 10SM FEW200 11/00 A3017 =
2014-11-23 10:58 METAR KDOV 231558Z AUTO 17006KT 10SM FEW200 10/M01 A3020 RMK AO2 SLP230
                 T00991015 =
2014-11-23 09:58 METAR KDOV 231458Z AUTO 19007KT 10SM FEW190 08/M02 A3022 RMK AO2 SLP237
                 T00821022 58003 =
2014-11-23 08:58 METAR KDOV 231358Z AUTO 12003KT 10SM CLR 05/M02 A3023 RMK AO2 SLP240 T00511016 =
2014-11-23 07:58 METAR KDOV 231258Z AUTO 18003KT 10SM CLR 03/M03 A3024 RMK AO2 SLP244 T00321030 =

Support USWX by starting your Amazon purchase here.